KPBX

Pike County-Hatcher Field Airport

Pikeville, Kentucky, USA
METAR KPBX 190755Z AUTO 16005KT 10SM CLR 00/M02 A3007 RMK AO2 T10031016
Observed Flight Rules
Dec-19 @ 07:55 UTC (10 minutes ago) Visual Flight Rules
Wind Visibility Clouds
160° at 5 knots 10 miles
  • Clear skies
Temperatures Readings
Current -0°C / 32°F
Dewpoint -2°C / 28°F
Humidity 87%
Altimeter 30.07" Hg
Pressure 1018 hPa
Elevation 449
METAR KPBX 190755Z AUTO 16005KT 10SM CLR 00/M02 A3007 RMK AO2 T10031016
Observed Flight Rules
Dec-19 @ 07:55 UTC
(10 minutes ago)
VFR
Wind Visibility
160° at 5 knots 10 miles
Clouds
  • Clear skies
Temperature Dewpoint
-0°C / 32°F -2°C / 28°F
Humidity Altimeter Pressure
87% 30.07" Hg 1018 hPa